BAW212 EGKK-EHAM
Flight info
| Callsign | BAW212 |
|---|---|
| Flight time | 0h 50m |
| Altitude | 29000 |
| Route | FRANE1Z FRANE M604 GASBA M197 REDFA REDFA1A |
| Aircraft | B38M/M-SDE1FGHILORVWXY/HB1 |
Departure
| Time | 2026-05-06 19:33 |
|---|---|
| Airport | London Gatwick Airport (EGKK) |
Arrival
| Time | 2026-05-06 20:24 |
|---|---|
| Airport | Amsterdam Airport Schiphol (EHAM) |
| Time | Latitude | Longitude | Altitude | Speed | Heading |
|---|---|---|---|---|---|
| 2026-05-06 19:04 | 51.15459 | -0.17083 | 214 ft | 0 kts | 348° |
| 2026-05-06 19:21 | 51.15445 | -0.17078 | 213 ft | 2 kts | 345° |
| 2026-05-06 19:22 | 51.15429 | -0.17070 | 204 ft | 2 kts | 330° |
| 2026-05-06 19:22 | 51.15419 | -0.17050 | 217 ft | 2 kts | 264° |
| 2026-05-06 19:22 | 51.15421 | -0.17037 | 204 ft | 0 kts | 257° |
| 2026-05-06 19:24 | 51.15417 | -0.17063 | 206 ft | 5 kts | 257° |
| 2026-05-06 19:24 | 51.15404 | -0.17133 | 208 ft | 8 kts | 247° |
| 2026-05-06 19:24 | 51.15382 | -0.17222 | 211 ft | 9 kts | 252° |
| 2026-05-06 19:24 | 51.15360 | -0.17329 | 211 ft | 11 kts | 242° |
| 2026-05-06 19:25 | 51.15309 | -0.17402 | 214 ft | 10 kts | 234° |
| 2026-05-06 19:25 | 51.15292 | -0.17514 | 211 ft | 11 kts | 259° |
| 2026-05-06 19:25 | 51.15273 | -0.17658 | 215 ft | 15 kts | 257° |
| 2026-05-06 19:25 | 51.15247 | -0.17838 | 208 ft | 19 kts | 256° |
| 2026-05-06 19:26 | 51.15218 | -0.18055 | 213 ft | 21 kts | 258° |
| 2026-05-06 19:26 | 51.15187 | -0.18289 | 215 ft | 22 kts | 260° |
| 2026-05-06 19:26 | 51.15157 | -0.18537 | 210 ft | 23 kts | 258° |
| 2026-05-06 19:26 | 51.15121 | -0.18794 | 208 ft | 24 kts | 258° |
| 2026-05-06 19:27 | 51.15085 | -0.19059 | 213 ft | 25 kts | 258° |
| 2026-05-06 19:27 | 51.15053 | -0.19297 | 215 ft | 19 kts | 258° |
| 2026-05-06 19:27 | 51.15025 | -0.19506 | 215 ft | 20 kts | 257° |
| 2026-05-06 19:27 | 51.14993 | -0.19728 | 208 ft | 21 kts | 257° |
| 2026-05-06 19:28 | 51.14963 | -0.19956 | 204 ft | 21 kts | 258° |
| 2026-05-06 19:28 | 51.14930 | -0.20189 | 209 ft | 22 kts | 257° |
| 2026-05-06 19:28 | 51.14898 | -0.20425 | 213 ft | 22 kts | 258° |
| 2026-05-06 19:28 | 51.14864 | -0.20661 | 203 ft | 22 kts | 256° |
| 2026-05-06 19:29 | 51.14836 | -0.20895 | 207 ft | 21 kts | 256° |
| 2026-05-06 19:29 | 51.14818 | -0.21011 | 203 ft | 0 kts | 256° |
| 2026-05-06 19:29 | 51.14813 | -0.21044 | 211 ft | 8 kts | 256° |
| 2026-05-06 19:29 | 51.14790 | -0.21161 | 209 ft | 12 kts | 246° |
| 2026-05-06 19:30 | 51.14769 | -0.21293 | 207 ft | 13 kts | 259° |
| 2026-05-06 19:30 | 51.14722 | -0.21398 | 213 ft | 12 kts | 184° |
| 2026-05-06 19:30 | 51.14649 | -0.21341 | 204 ft | 12 kts | 148° |
| 2026-05-06 19:30 | 51.14621 | -0.21326 | 206 ft | 0 kts | 167° |
| 2026-05-06 19:31 | 51.14617 | -0.21325 | 207 ft | 1 kts | 167° |
| 2026-05-06 19:32 | 51.14596 | -0.21316 | 210 ft | 5 kts | 164° |
| 2026-05-06 19:32 | 51.14552 | -0.21279 | 216 ft | 11 kts | 140° |
| 2026-05-06 19:32 | 51.14529 | -0.21099 | 210 ft | 26 kts | 79° |
| 2026-05-06 19:32 | 51.14609 | -0.20505 | 211 ft | 86 kts | 78° |
| 2026-05-06 19:33 | 51.14776 | -0.19291 | 206 ft | 136 kts | 78° |
| 2026-05-06 19:33 | 51.14994 | -0.17652 | 378 ft | 159 kts | 78° |
| 2026-05-06 19:33 | 51.15234 | -0.15870 | 810 ft | 169 kts | 77° |
| 2026-05-06 19:33 | 51.15490 | -0.13951 | 1045 ft | 184 kts | 76° |
| 2026-05-06 19:34 | 51.15734 | -0.11868 | 1330 ft | 195 kts | 75° |
| 2026-05-06 19:34 | 51.16034 | -0.09738 | 1780 ft | 198 kts | 75° |
| 2026-05-06 19:34 | 51.16319 | -0.07606 | 2150 ft | 198 kts | 76° |
| 2026-05-06 19:34 | 51.16547 | -0.05432 | 2502 ft | 199 kts | 80° |
| 2026-05-06 19:35 | 51.16628 | -0.03166 | 2645 ft | 220 kts | 85° |
| 2026-05-06 19:35 | 51.16782 | -0.00582 | 2699 ft | 248 kts | 83° |
| 2026-05-06 19:35 | 51.16841 | 0.02243 | 3142 ft | 260 kts | 89° |
| 2026-05-06 19:35 | 51.16764 | 0.05156 | 3725 ft | 266 kts | 91° |
| 2026-05-06 19:36 | 51.16677 | 0.08125 | 4329 ft | 271 kts | 91° |
| 2026-05-06 19:36 | 51.16623 | 0.11146 | 4926 ft | 275 kts | 90° |
| 2026-05-06 19:36 | 51.16576 | 0.14203 | 5573 ft | 277 kts | 91° |
| 2026-05-06 19:36 | 51.16616 | 0.17271 | 6206 ft | 278 kts | 88° |
| 2026-05-06 19:37 | 51.16601 | 0.20358 | 6803 ft | 280 kts | 91° |
| 2026-05-06 19:37 | 51.16561 | 0.23478 | 7383 ft | 283 kts | 90° |
| 2026-05-06 19:37 | 51.16566 | 0.26627 | 7948 ft | 286 kts | 88° |
| 2026-05-06 19:37 | 51.16585 | 0.29807 | 8522 ft | 289 kts | 88° |
| 2026-05-06 19:38 | 51.16894 | 0.32952 | 9100 ft | 289 kts | 62° |
| 2026-05-06 19:38 | 51.18174 | 0.35390 | 9543 ft | 293 kts | 30° |
| 2026-05-06 19:38 | 51.20108 | 0.36483 | 9838 ft | 303 kts | 7° |
| 2026-05-06 19:38 | 51.22246 | 0.36912 | 10099 ft | 316 kts | 6° |
| 2026-05-06 19:39 | 51.24450 | 0.37461 | 10488 ft | 325 kts | 10° |
| 2026-05-06 19:39 | 51.26643 | 0.38461 | 10967 ft | 331 kts | 20° |
| 2026-05-06 19:39 | 51.28748 | 0.40015 | 11465 ft | 336 kts | 26° |
| 2026-05-06 19:39 | 51.30831 | 0.41764 | 11986 ft | 340 kts | 25° |
| 2026-05-06 19:40 | 51.32970 | 0.43395 | 12558 ft | 342 kts | 22° |
| 2026-05-06 19:40 | 51.35167 | 0.44904 | 13105 ft | 345 kts | 21° |
| 2026-05-06 19:40 | 51.37371 | 0.46455 | 13658 ft | 347 kts | 22° |
| 2026-05-06 19:40 | 51.39549 | 0.48160 | 14153 ft | 351 kts | 33° |
| 2026-05-06 19:41 | 51.41238 | 0.50990 | 14632 ft | 357 kts | 58° |
| 2026-05-06 19:41 | 51.42302 | 0.54608 | 15090 ft | 361 kts | 67° |
| 2026-05-06 19:41 | 51.43194 | 0.58390 | 15526 ft | 364 kts | 68° |
| 2026-05-06 19:41 | 51.44198 | 0.62130 | 15985 ft | 366 kts | 61° |
| 2026-05-06 19:42 | 51.45490 | 0.65664 | 16429 ft | 368 kts | 55° |
| 2026-05-06 19:42 | 51.46922 | 0.69088 | 16868 ft | 371 kts | 55° |
| 2026-05-06 19:42 | 51.48299 | 0.72606 | 17304 ft | 374 kts | 58° |
| 2026-05-06 19:42 | 51.49592 | 0.76253 | 17723 ft | 377 kts | 59° |
| 2026-05-06 19:43 | 51.50906 | 0.79913 | 18166 ft | 380 kts | 58° |
| 2026-05-06 19:43 | 51.52276 | 0.83559 | 18537 ft | 383 kts | 57° |
| 2026-05-06 19:43 | 51.53659 | 0.87233 | 18914 ft | 385 kts | 58° |
| 2026-05-06 19:43 | 51.55028 | 0.90956 | 19258 ft | 389 kts | 58° |
| 2026-05-06 19:44 | 51.56407 | 0.94732 | 19436 ft | 396 kts | 58° |
| 2026-05-06 19:44 | 51.57830 | 0.98597 | 19514 ft | 407 kts | 58° |
| 2026-05-06 19:44 | 51.59298 | 1.02573 | 19526 ft | 420 kts | 58° |
| 2026-05-06 19:44 | 51.60802 | 1.06670 | 19613 ft | 430 kts | 58° |
| 2026-05-06 19:45 | 51.62331 | 1.10855 | 19771 ft | 438 kts | 58° |
| 2026-05-06 19:45 | 51.63885 | 1.15110 | 19997 ft | 444 kts | 58° |
| 2026-05-06 19:45 | 51.65336 | 1.19527 | 20253 ft | 450 kts | 69° |
| 2026-05-06 19:45 | 51.66263 | 1.24357 | 20536 ft | 453 kts | 69° |
| 2026-05-06 19:46 | 51.67733 | 1.28840 | 20838 ft | 455 kts | 55° |
| 2026-05-06 19:46 | 51.69617 | 1.32942 | 21150 ft | 457 kts | 50° |
| 2026-05-06 19:46 | 51.71610 | 1.36961 | 21477 ft | 460 kts | 51° |
| 2026-05-06 19:46 | 51.73526 | 1.41115 | 21806 ft | 463 kts | 56° |
| 2026-05-06 19:47 | 51.75184 | 1.45582 | 22139 ft | 466 kts | 60° |
| 2026-05-06 19:47 | 51.76697 | 1.50250 | 22480 ft | 469 kts | 62° |
| 2026-05-06 19:47 | 51.78211 | 1.54903 | 22816 ft | 471 kts | 60° |
| 2026-05-06 19:47 | 51.79884 | 1.59441 | 23007 ft | 470 kts | 57° |
| 2026-05-06 19:48 | 51.81597 | 1.63928 | 22994 ft | 468 kts | 58° |
| 2026-05-06 19:48 | 51.83223 | 1.68475 | 22992 ft | 467 kts | 60° |
| 2026-05-06 19:48 | 51.84802 | 1.73060 | 22993 ft | 467 kts | 60° |
| 2026-05-06 19:48 | 51.86416 | 1.77615 | 22990 ft | 467 kts | 59° |
| 2026-05-06 19:49 | 51.88062 | 1.82146 | 22988 ft | 467 kts | 59° |
| 2026-05-06 19:49 | 51.89692 | 1.86694 | 22989 ft | 467 kts | 59° |
| 2026-05-06 19:49 | 51.91298 | 1.91266 | 22991 ft | 467 kts | 59° |
| 2026-05-06 19:49 | 51.92884 | 1.95772 | 22986 ft | 467 kts | 59° |
| 2026-05-06 19:50 | 51.94508 | 2.00347 | 22993 ft | 468 kts | 59° |
| 2026-05-06 19:50 | 51.96130 | 2.04922 | 22992 ft | 469 kts | 59° |
| 2026-05-06 19:50 | 51.97743 | 2.09508 | 22991 ft | 468 kts | 59° |
| 2026-05-06 19:50 | 51.99353 | 2.14099 | 22992 ft | 469 kts | 59° |
| 2026-05-06 19:51 | 52.00967 | 2.18695 | 22992 ft | 468 kts | 59° |
| 2026-05-06 19:51 | 52.02580 | 2.23290 | 23002 ft | 469 kts | 59° |
| 2026-05-06 19:51 | 52.04186 | 2.27884 | 23001 ft | 469 kts | 59° |
| 2026-05-06 19:51 | 52.05793 | 2.32493 | 23001 ft | 468 kts | 59° |
| 2026-05-06 19:52 | 52.07369 | 2.37017 | 22983 ft | 451 kts | 59° |
| 2026-05-06 19:52 | 52.08880 | 2.41364 | 22978 ft | 433 kts | 59° |
| 2026-05-06 19:52 | 52.10336 | 2.45555 | 22974 ft | 418 kts | 59° |
| 2026-05-06 19:52 | 52.11805 | 2.49524 | 22963 ft | 404 kts | 52° |
| 2026-05-06 19:53 | 52.13390 | 2.53306 | 22519 ft | 404 kts | 59° |
| 2026-05-06 19:53 | 52.14704 | 2.57319 | 22153 ft | 401 kts | 62° |
| 2026-05-06 19:53 | 52.15961 | 2.61352 | 21794 ft | 397 kts | 60° |
| 2026-05-06 19:53 | 52.17337 | 2.65225 | 21453 ft | 394 kts | 57° |
| 2026-05-06 19:54 | 52.18793 | 2.68990 | 21097 ft | 391 kts | 57° |
| 2026-05-06 19:54 | 52.20192 | 2.72787 | 20749 ft | 390 kts | 58° |
| 2026-05-06 19:54 | 52.21528 | 2.76611 | 20407 ft | 387 kts | 59° |
| 2026-05-06 19:54 | 52.22870 | 2.80404 | 20058 ft | 385 kts | 58° |
| 2026-05-06 19:55 | 52.24231 | 2.84148 | 19714 ft | 383 kts | 57° |
| 2026-05-06 19:55 | 52.25582 | 2.87880 | 19384 ft | 381 kts | 58° |
| 2026-05-06 19:55 | 52.26907 | 2.91597 | 19155 ft | 376 kts | 58° |
| 2026-05-06 19:55 | 52.28225 | 2.95303 | 18746 ft | 378 kts | 58° |
| 2026-05-06 19:56 | 52.29567 | 2.99052 | 18043 ft | 385 kts | 58° |
| 2026-05-06 19:56 | 52.30911 | 3.02814 | 17605 ft | 382 kts | 59° |
| 2026-05-06 19:56 | 52.32235 | 3.06541 | 17228 ft | 377 kts | 58° |
| 2026-05-06 19:56 | 52.33546 | 3.10235 | 16865 ft | 373 kts | 58° |
| 2026-05-06 19:57 | 52.34841 | 3.13881 | 16505 ft | 369 kts | 58° |
| 2026-05-06 19:57 | 52.36125 | 3.17498 | 16150 ft | 366 kts | 59° |
| 2026-05-06 19:57 | 52.37391 | 3.21082 | 15792 ft | 362 kts | 58° |
| 2026-05-06 19:57 | 52.38648 | 3.24643 | 15458 ft | 360 kts | 58° |
| 2026-05-06 19:58 | 52.39895 | 3.28177 | 15107 ft | 357 kts | 57° |
| 2026-05-06 19:58 | 52.41131 | 3.31681 | 14766 ft | 355 kts | 57° |
| 2026-05-06 19:58 | 52.42359 | 3.35172 | 14426 ft | 352 kts | 59° |
| 2026-05-06 19:58 | 52.43575 | 3.38630 | 14086 ft | 349 kts | 57° |
| 2026-05-06 19:59 | 52.44534 | 3.42279 | 13713 ft | 350 kts | 73° |
| 2026-05-06 19:59 | 52.45006 | 3.46187 | 13261 ft | 350 kts | 81° |
| 2026-05-06 19:59 | 52.45381 | 3.50124 | 12830 ft | 349 kts | 78° |
| 2026-05-06 19:59 | 52.45913 | 3.53988 | 12395 ft | 347 kts | 73° |
| 2026-05-06 20:00 | 52.46583 | 3.57778 | 11966 ft | 345 kts | 73° |
| 2026-05-06 20:00 | 52.47214 | 3.61566 | 11550 ft | 344 kts | 75° |
| 2026-05-06 20:00 | 52.47799 | 3.65368 | 11121 ft | 343 kts | 75° |
| 2026-05-06 20:00 | 52.48370 | 3.69140 | 10867 ft | 336 kts | 75° |
| 2026-05-06 20:01 | 52.48928 | 3.72805 | 10732 ft | 327 kts | 75° |
| 2026-05-06 20:01 | 52.49473 | 3.76371 | 10594 ft | 318 kts | 75° |
| 2026-05-06 20:01 | 52.50001 | 3.79840 | 10457 ft | 310 kts | 75° |
| 2026-05-06 20:01 | 52.50517 | 3.83241 | 10202 ft | 306 kts | 75° |
| 2026-05-06 20:02 | 52.51029 | 3.86629 | 9928 ft | 304 kts | 75° |
| 2026-05-06 20:02 | 52.51534 | 3.89972 | 9679 ft | 301 kts | 75° |
| 2026-05-06 20:02 | 52.52027 | 3.93244 | 9387 ft | 298 kts | 75° |
| 2026-05-06 20:02 | 52.52379 | 3.96575 | 9098 ft | 296 kts | 93° |
| 2026-05-06 20:03 | 52.52065 | 3.98774 | 8991 ft | 292 kts | 116° |
| 2026-05-06 20:03 | 52.50230 | 4.01667 | 9067 ft | 283 kts | 161° |
| 2026-05-06 20:03 | 52.48298 | 4.02204 | 9118 ft | 281 kts | 176° |
| 2026-05-06 20:03 | 52.46503 | 4.03147 | 9164 ft | 268 kts | 140° |
| 2026-05-06 20:04 | 52.45639 | 4.04587 | 9095 ft | 262 kts | 128° |
| 2026-05-06 20:04 | 52.44455 | 4.06930 | 8728 ft | 267 kts | 129° |
| 2026-05-06 20:04 | 52.43255 | 4.09249 | 8444 ft | 268 kts | 130° |
| 2026-05-06 20:04 | 52.42037 | 4.11565 | 8168 ft | 268 kts | 129° |
| 2026-05-06 20:05 | 52.40821 | 4.13885 | 7901 ft | 268 kts | 129° |
| 2026-05-06 20:05 | 52.39612 | 4.16198 | 7638 ft | 267 kts | 129° |
| 2026-05-06 20:05 | 52.38402 | 4.18512 | 7396 ft | 267 kts | 129° |
| 2026-05-06 20:05 | 52.37196 | 4.20812 | 7149 ft | 266 kts | 128° |
| 2026-05-06 20:06 | 52.35994 | 4.23103 | 6915 ft | 264 kts | 128° |
| 2026-05-06 20:06 | 52.34823 | 4.25330 | 6371 ft | 256 kts | 127° |
| 2026-05-06 20:06 | 52.33668 | 4.27526 | 5679 ft | 253 kts | 126° |
| 2026-05-06 20:06 | 52.32530 | 4.29696 | 5003 ft | 251 kts | 129° |
| 2026-05-06 20:07 | 52.31397 | 4.31847 | 4362 ft | 247 kts | 126° |
| 2026-05-06 20:07 | 52.30286 | 4.33953 | 3762 ft | 242 kts | 127° |
| 2026-05-06 20:07 | 52.29191 | 4.36033 | 3113 ft | 240 kts | 128° |
| 2026-05-06 20:07 | 52.28109 | 4.38081 | 2580 ft | 235 kts | 127° |
| 2026-05-06 20:08 | 52.27048 | 4.40089 | 2229 ft | 229 kts | 127° |
| 2026-05-06 20:08 | 52.26053 | 4.41963 | 1987 ft | 207 kts | 126° |
| 2026-05-06 20:08 | 52.25136 | 4.43698 | 1989 ft | 203 kts | 124° |
| 2026-05-06 20:08 | 52.24217 | 4.45445 | 1988 ft | 202 kts | 125° |
| 2026-05-06 20:09 | 52.23304 | 4.47167 | 1978 ft | 196 kts | 125° |
| 2026-05-06 20:09 | 52.22446 | 4.48779 | 1981 ft | 183 kts | 125° |
| 2026-05-06 20:09 | 52.21615 | 4.50360 | 1981 ft | 183 kts | 124° |
| 2026-05-06 20:09 | 52.21107 | 4.52176 | 1983 ft | 175 kts | 92° |
| 2026-05-06 20:10 | 52.21272 | 4.54060 | 1983 ft | 166 kts | 64° |
| 2026-05-06 20:10 | 52.21819 | 4.55624 | 1985 ft | 155 kts | 56° |
| 2026-05-06 20:10 | 52.22417 | 4.57122 | 1990 ft | 157 kts | 56° |
| 2026-05-06 20:10 | 52.23002 | 4.58622 | 1988 ft | 157 kts | 56° |
| 2026-05-06 20:11 | 52.23590 | 4.60131 | 1947 ft | 160 kts | 56° |
| 2026-05-06 20:11 | 52.24180 | 4.61644 | 1758 ft | 156 kts | 57° |
| 2026-05-06 20:11 | 52.24756 | 4.63125 | 1542 ft | 155 kts | 57° |
| 2026-05-06 20:11 | 52.25332 | 4.64607 | 1322 ft | 149 kts | 57° |
| 2026-05-06 20:12 | 52.25859 | 4.65946 | 1100 ft | 137 kts | 56° |
| 2026-05-06 20:12 | 52.26359 | 4.67255 | 853 ft | 133 kts | 56° |
| 2026-05-06 20:12 | 52.26821 | 4.68483 | 671 ft | 121 kts | 54° |
| 2026-05-06 20:12 | 52.27267 | 4.69662 | 433 ft | 127 kts | 56° |
| 2026-05-06 20:13 | 52.27790 | 4.70887 | 414 ft | 133 kts | 54° |
| 2026-05-06 20:13 | 52.28297 | 4.72187 | 355 ft | 141 kts | 56° |
| 2026-05-06 20:13 | 52.28815 | 4.73572 | 702 ft | 145 kts | 57° |
| 2026-05-06 20:13 | 52.29368 | 4.75030 | 946 ft | 157 kts | 56° |
| 2026-05-06 20:14 | 52.29897 | 4.76582 | 1348 ft | 158 kts | 58° |
| 2026-05-06 20:14 | 52.30448 | 4.78237 | 1644 ft | 171 kts | 60° |
| 2026-05-06 20:14 | 52.31078 | 4.79821 | 2015 ft | 179 kts | 47° |
| 2026-05-06 20:14 | 52.32131 | 4.81149 | 1739 ft | 199 kts | 29° |
| 2026-05-06 20:15 | 52.33431 | 4.81686 | 1773 ft | 192 kts | 354° |
| 2026-05-06 20:15 | 52.34707 | 4.80927 | 1950 ft | 202 kts | 337° |
| 2026-05-06 20:15 | 52.35949 | 4.79817 | 2014 ft | 204 kts | 335° |
| 2026-05-06 20:15 | 52.36967 | 4.78221 | 2031 ft | 210 kts | 298° |
| 2026-05-06 20:16 | 52.37234 | 4.75779 | 2038 ft | 233 kts | 264° |
| 2026-05-06 20:16 | 52.36844 | 4.73188 | 2013 ft | 235 kts | 253° |
| 2026-05-06 20:16 | 52.36285 | 4.70674 | 2007 ft | 236 kts | 249° |
| 2026-05-06 20:16 | 52.35668 | 4.68178 | 2001 ft | 237 kts | 252° |
| 2026-05-06 20:17 | 52.35056 | 4.65679 | 2000 ft | 237 kts | 245° |
| 2026-05-06 20:17 | 52.34279 | 4.63279 | 1994 ft | 240 kts | 240° |
| 2026-05-06 20:17 | 52.33428 | 4.60940 | 1996 ft | 239 kts | 239° |
| 2026-05-06 20:17 | 52.32566 | 4.58621 | 1998 ft | 239 kts | 239° |
| 2026-05-06 20:18 | 52.31704 | 4.56304 | 1998 ft | 239 kts | 239° |
| 2026-05-06 20:18 | 52.30843 | 4.53983 | 2005 ft | 239 kts | 239° |
| 2026-05-06 20:18 | 52.29830 | 4.51864 | 2024 ft | 238 kts | 214° |
| 2026-05-06 20:18 | 52.28322 | 4.50867 | 2020 ft | 233 kts | 182° |
| 2026-05-06 20:19 | 52.26719 | 4.50813 | 2005 ft | 229 kts | 174° |
| 2026-05-06 20:19 | 52.25186 | 4.51238 | 2013 ft | 218 kts | 146° |
| 2026-05-06 20:19 | 52.24038 | 4.52701 | 2035 ft | 204 kts | 129° |
| 2026-05-06 20:19 | 52.23091 | 4.54421 | 2013 ft | 204 kts | 126° |
| 2026-05-06 20:20 | 52.22176 | 4.56177 | 2006 ft | 203 kts | 124° |
| 2026-05-06 20:20 | 52.21634 | 4.58170 | 2004 ft | 185 kts | 89° |
| 2026-05-06 20:20 | 52.21961 | 4.59949 | 2000 ft | 161 kts | 48° |
| 2026-05-06 20:20 | 52.22872 | 4.60846 | 2000 ft | 152 kts | 25° |
| 2026-05-06 20:21 | 52.23792 | 4.61623 | 1991 ft | 143 kts | 35° |
| 2026-05-06 20:21 | 52.24534 | 4.62636 | 1985 ft | 140 kts | 50° |
| 2026-05-06 20:21 | 52.25090 | 4.63941 | 1743 ft | 144 kts | 57° |
| 2026-05-06 20:21 | 52.25626 | 4.65349 | 1022 ft | 140 kts | 56° |
| 2026-05-06 20:22 | 52.26126 | 4.66637 | 755 ft | 133 kts | 55° |
| 2026-05-06 20:22 | 52.26620 | 4.67914 | 593 ft | 133 kts | 56° |
| 2026-05-06 20:22 | 52.27101 | 4.69201 | 566 ft | 137 kts | 55° |
| 2026-05-06 20:22 | 52.27633 | 4.70551 | 436 ft | 144 kts | 56° |
| 2026-05-06 20:23 | 52.28147 | 4.71871 | 274 ft | 133 kts | 54° |
| 2026-05-06 20:23 | 52.28660 | 4.73100 | 126 ft | 129 kts | 56° |
| 2026-05-06 20:23 | 52.29112 | 4.74260 | 19 ft | 108 kts | 55° |
| 2026-05-06 20:23 | 52.29457 | 4.75128 | 14 ft | 76 kts | 60° |
| 2026-05-06 20:24 | 52.29686 | 4.75745 | 17 ft | 52 kts | 59° |
| 2026-05-06 20:24 | 52.29841 | 4.76142 | 13 ft | 41 kts | 57° |
| 2026-05-06 20:24 | 52.29982 | 4.76468 | 16 ft | 19 kts | 45° |
| 2026-05-06 20:24 | 52.30086 | 4.76588 | 18 ft | 21 kts | 28° |